createdAt,value
2022-11-07T00:00:19.230Z,14.06
2022-11-07T00:04:22.867Z,13.86
2022-11-07T00:08:32.080Z,13.56
2022-11-07T00:12:35.510Z,13.46
2022-11-07T00:16:37.175Z,13.19
2022-11-07T00:20:40.895Z,13.28
2022-11-07T00:24:42.158Z,13.18
2022-11-07T00:28:46.644Z,13.23
2022-11-07T00:32:47.612Z,13.13
2022-11-07T00:36:51.721Z,13.35
2022-11-07T00:40:58.799Z,13.46
2022-11-07T00:45:00.059Z,13.50
2022-11-07T00:49:01.438Z,13.61
2022-11-07T00:53:05.575Z,13.62
2022-11-07T00:57:06.894Z,13.37
2022-11-07T01:01:12.558Z,13.61
2022-11-07T01:05:13.756Z,13.92
2022-11-07T01:09:22.230Z,13.92
2022-11-07T01:13:23.933Z,13.86
2022-11-07T01:17:25.516Z,13.86
2022-11-07T01:21:27.305Z,14.01
2022-11-07T01:25:30.915Z,14.13
2022-11-07T01:29:32.233Z,14.16
2022-11-07T01:33:33.619Z,14.19
2022-11-07T01:37:33.860Z,14.24
2022-11-07T01:41:40.363Z,14.33
2022-11-07T01:45:40.479Z,14.21
2022-11-07T01:49:45.809Z,14.12
2022-11-07T01:53:46.005Z,14.42
2022-11-07T01:57:55.004Z,14.43
2022-11-07T02:01:56.416Z,14.49
2022-11-07T02:06:02.420Z,14.63
2022-11-07T02:10:03.168Z,14.76
2022-11-07T02:14:05.994Z,14.78
2022-11-07T02:18:06.831Z,14.82
2022-11-07T02:22:22.581Z,14.84
2022-11-07T02:26:26.408Z,14.93
2022-11-07T02:30:30.279Z,15.05
2022-11-07T02:34:30.594Z,15.12
2022-11-07T02:38:35.590Z,15.06
2022-11-07T02:42:47.525Z,15.18
2022-11-07T02:46:48.798Z,15.12
2022-11-07T02:50:48.997Z,15.11
2022-11-07T02:54:49.072Z,15.33
2022-11-07T02:58:52.761Z,15.16
2022-11-07T03:02:53.128Z,15.21
2022-11-07T03:06:53.307Z,15.14
2022-11-07T03:10:53.385Z,15.45
2022-11-07T03:14:56.031Z,15.49
2022-11-07T03:18:56.116Z,15.48
2022-11-07T03:22:56.237Z,15.49
2022-11-07T03:26:56.303Z,15.49
2022-11-07T03:31:02.608Z,15.53
2022-11-07T03:35:02.758Z,15.51
2022-11-07T03:39:02.878Z,15.52
2022-11-07T03:43:02.961Z,15.38
2022-11-07T03:47:05.737Z,15.47
2022-11-07T03:51:05.903Z,15.46
2022-11-07T03:55:06.258Z,15.40
2022-11-07T03:59:06.411Z,15.47
2022-11-07T04:03:09.146Z,15.65
2022-11-07T04:07:09.271Z,15.82
2022-11-07T04:11:29.593Z,15.60
2022-11-07T04:15:42.130Z,15.55
2022-11-07T04:19:44.835Z,15.64
2022-11-07T04:23:44.959Z,15.74
2022-11-07T04:27:45.440Z,15.58
2022-11-07T04:31:45.539Z,15.63
2022-11-07T04:35:48.183Z,15.70
2022-11-07T04:39:48.715Z,15.88
2022-11-07T04:43:48.818Z,15.82
2022-11-07T04:47:49.729Z,15.81
2022-11-07T04:51:52.584Z,15.79
2022-11-07T04:55:52.692Z,15.50
2022-11-07T04:59:52.968Z,15.69
2022-11-07T05:03:52.980Z,15.61
2022-11-07T05:07:55.776Z,15.57
2022-11-07T05:11:56.744Z,15.66
2022-11-07T05:15:57.123Z,15.41
2022-11-07T05:19:57.358Z,15.38
2022-11-07T05:24:00.113Z,15.05
2022-11-07T05:28:00.220Z,14.94
2022-11-07T05:32:00.423Z,14.90
2022-11-07T05:36:00.587Z,14.68
2022-11-07T05:40:03.258Z,14.62
2022-11-07T05:44:03.392Z,14.23
2022-11-07T05:48:06.875Z,14.28
2022-11-07T05:52:07.454Z,14.23
2022-11-07T05:56:10.487Z,14.11
2022-11-07T06:00:13.231Z,14.11
2022-11-07T06:04:13.343Z,14.07
2022-11-07T06:08:15.740Z,14.07
2022-11-07T06:12:18.489Z,14.11
2022-11-07T06:16:18.882Z,14.30
2022-11-07T06:20:19.239Z,14.43
2022-11-07T06:24:20.175Z,14.44
2022-11-07T06:28:22.908Z,14.60
2022-11-07T06:32:23.182Z,14.64
2022-11-07T06:36:23.405Z,14.53
2022-11-07T06:40:23.783Z,14.84
2022-11-07T06:44:26.492Z,15.05
2022-11-07T06:48:26.706Z,15.54
2022-11-07T06:52:26.832Z,15.56
2022-11-07T06:56:27.042Z,15.72
2022-11-07T07:00:30.214Z,15.63
2022-11-07T07:04:30.353Z,15.76
2022-11-07T07:08:30.530Z,16.08
2022-11-07T07:12:30.563Z,16.23
2022-11-07T07:16:33.326Z,16.12
2022-11-07T07:20:34.213Z,16.29
2022-11-07T07:24:34.301Z,16.38
2022-11-07T07:28:37.238Z,16.40
2022-11-07T07:32:41.224Z,15.88
2022-11-07T07:36:41.266Z,16.40
2022-11-07T07:40:41.353Z,16.56
2022-11-07T07:44:41.400Z,16.61
2022-11-07T07:48:44.226Z,16.40
2022-11-07T07:52:44.525Z,16.75
2022-11-07T07:56:44.676Z,16.84
2022-11-07T08:00:45.632Z,16.56
2022-11-07T08:04:48.606Z,16.22
2022-11-07T08:08:48.767Z,16.17
2022-11-07T08:12:49.895Z,16.50
2022-11-07T08:16:50.148Z,16.34
2022-11-07T08:20:53.608Z,17.13
2022-11-07T08:24:53.697Z,17.71
2022-11-07T08:28:56.744Z,17.74
2022-11-07T08:32:57.058Z,17.61
2022-11-07T08:36:59.798Z,18.06
2022-11-07T08:41:00.925Z,18.09
2022-11-07T08:45:01.020Z,18.53
2022-11-07T08:49:01.342Z,18.16
2022-11-07T08:53:04.791Z,17.98
2022-11-07T08:57:04.947Z,18.53
2022-11-07T09:01:14.427Z,18.68
2022-11-07T09:05:14.612Z,18.78
2022-11-07T09:09:17.655Z,18.58
2022-11-07T09:13:18.078Z,18.58
2022-11-07T09:17:19.665Z,18.86
2022-11-07T09:21:22.899Z,18.47
2022-11-07T09:25:26.201Z,19.34
2022-11-07T09:29:27.533Z,19.71
2022-11-07T09:33:29.121Z,19.93
2022-11-07T09:37:29.447Z,20.31
2022-11-07T09:41:50.458Z,20.08
2022-11-07T09:46:02.581Z,20.05
2022-11-07T09:50:09.829Z,20.37
2022-11-07T09:54:17.690Z,20.35
2022-11-07T09:58:28.727Z,20.53
2022-11-07T10:02:34.499Z,20.68
2022-11-07T10:06:40.966Z,20.14
2022-11-07T10:10:49.605Z,20.23
2022-11-07T10:15:05.363Z,20.42
2022-11-07T10:19:25.645Z,20.36
2022-11-07T10:23:55.697Z,20.64
2022-11-07T10:28:14.563Z,20.66
2022-11-07T10:32:27.736Z,20.66
2022-11-07T10:36:31.734Z,20.54
2022-11-07T10:40:41.589Z,21.02
2022-11-07T10:44:44.882Z,21.33
2022-11-07T10:48:59.833Z,21.22
2022-11-07T10:53:03.430Z,21.86
2022-11-07T10:57:08.641Z,21.92
2022-11-07T11:01:12.042Z,21.87
2022-11-07T11:05:28.293Z,22.13
2022-11-07T11:09:34.022Z,23.38
2022-11-07T11:13:37.028Z,25.12
2022-11-07T11:17:37.789Z,25.45
2022-11-07T11:21:49.873Z,26.04
2022-11-07T11:25:53.075Z,25.23
2022-11-07T11:30:07.846Z,23.28
2022-11-07T11:34:16.420Z,22.73
2022-11-07T11:38:26.757Z,22.84
2022-11-07T11:42:35.217Z,22.01
2022-11-07T11:46:47.393Z,21.44
2022-11-07T11:50:55.490Z,21.24
2022-11-07T11:55:01.585Z,21.93
2022-11-07T11:59:41.611Z,21.95
2022-11-07T12:04:07.957Z,22.39
2022-11-07T12:08:30.337Z,22.18
2022-11-07T12:12:48.557Z,22.11
2022-11-07T12:17:01.377Z,21.78
2022-11-07T12:21:18.023Z,22.30
2022-11-07T12:25:30.677Z,23.60
2022-11-07T12:30:12.391Z,24.75
2022-11-07T12:34:32.555Z,25.20
2022-11-07T12:39:10.875Z,24.76
2022-11-07T12:43:31.649Z,25.32
2022-11-07T12:48:02.745Z,23.92
2022-11-07T12:52:19.475Z,24.60
2022-11-07T12:56:27.152Z,24.66
2022-11-07T13:00:31.041Z,24.82
2022-11-07T13:04:46.740Z,25.05
2022-11-07T13:08:59.957Z,25.23
2022-11-07T13:13:09.547Z,24.76
2022-11-07T13:17:20.633Z,23.89
2022-11-07T13:21:25.187Z,23.53
2022-11-07T13:25:32.736Z,23.16
2022-11-07T13:29:41.593Z,22.41
2022-11-07T13:33:41.982Z,22.46
2022-11-07T13:37:51.167Z,22.89
2022-11-07T13:41:52.029Z,23.69
2022-11-07T13:45:58.354Z,23.83
2022-11-07T13:50:11.840Z,23.51
2022-11-07T13:54:27.274Z,22.99
2022-11-07T13:58:31.179Z,22.41
2022-11-07T14:02:34.150Z,22.34
2022-11-07T14:06:35.621Z,22.20
2022-11-07T14:10:47.820Z,22.37
2022-11-07T14:14:49.023Z,21.81
2022-11-07T14:18:53.336Z,21.63
2022-11-07T14:22:57.682Z,21.51
2022-11-07T14:27:07.430Z,21.18
2022-11-07T14:31:10.753Z,21.26
2022-11-07T14:35:12.410Z,20.87
2022-11-07T14:39:16.994Z,20.60
2022-11-07T14:43:24.432Z,20.57
2022-11-07T14:47:27.903Z,20.40
2022-11-07T14:51:31.283Z,20.80
2022-11-07T14:55:38.678Z,20.56
2022-11-07T14:59:43.361Z,20.68
2022-11-07T15:03:57.392Z,20.62
2022-11-07T15:08:00.413Z,20.23
2022-11-07T15:12:03.321Z,20.49
2022-11-07T15:16:10.670Z,20.26
2022-11-07T15:20:24.055Z,19.74
2022-11-07T15:24:36.417Z,19.73
2022-11-07T15:28:49.015Z,19.79
2022-11-07T15:32:51.712Z,19.79
2022-11-07T15:36:51.810Z,19.66
2022-11-07T15:41:01.638Z,19.51
2022-11-07T15:45:01.684Z,19.50
2022-11-07T15:49:07.785Z,19.47
2022-11-07T15:53:07.831Z,19.45
2022-11-07T15:57:10.691Z,19.27
2022-11-07T16:01:10.764Z,19.17
2022-11-07T16:05:13.800Z,19.42
2022-11-07T16:09:19.503Z,19.25
2022-11-07T16:13:19.960Z,19.00
2022-11-07T16:17:25.117Z,19.05
2022-11-07T16:21:27.791Z,18.85
2022-11-07T16:25:30.422Z,18.50
2022-11-07T16:29:30.637Z,18.43
2022-11-07T16:33:31.596Z,18.33
2022-11-07T16:37:34.278Z,18.24
2022-11-07T16:41:35.448Z,18.46
2022-11-07T16:45:35.700Z,18.42
2022-11-07T16:49:35.919Z,18.25
2022-11-07T16:53:38.588Z,18.30
2022-11-07T16:57:39.821Z,18.33
2022-11-07T17:01:40.021Z,18.26
2022-11-07T17:05:40.313Z,18.12
2022-11-07T17:09:44.307Z,17.95
2022-11-07T17:13:44.885Z,18.05
2022-11-07T17:17:45.030Z,18.07
2022-11-07T17:21:49.417Z,18.01
2022-11-07T17:25:55.766Z,17.84
2022-11-07T17:29:57.437Z,17.77
2022-11-07T17:33:57.979Z,17.79
2022-11-07T17:37:58.041Z,17.89
2022-11-07T17:42:01.007Z,17.67
2022-11-07T17:46:01.131Z,17.51
2022-11-07T17:50:01.640Z,17.37
2022-11-07T17:54:02.202Z,17.41
2022-11-07T17:58:04.864Z,17.30
2022-11-07T18:02:05.211Z,17.34
2022-11-07T18:06:05.294Z,17.43
2022-11-07T18:10:07.502Z,17.34
2022-11-07T18:14:10.149Z,17.29
2022-11-07T18:18:11.136Z,17.09
2022-11-07T18:22:11.724Z,16.91
2022-11-07T18:26:16.677Z,16.85
2022-11-07T18:30:19.637Z,16.99
2022-11-07T18:34:20.551Z,16.99
2022-11-07T18:38:20.635Z,16.84
2022-11-07T18:42:20.703Z,16.69
2022-11-07T18:46:23.381Z,16.70
2022-11-07T18:50:23.424Z,16.65
2022-11-07T18:54:25.905Z,16.37
2022-11-07T18:58:26.103Z,16.15
2022-11-07T19:02:28.933Z,15.79
2022-11-07T19:06:34.318Z,15.73
2022-11-07T19:10:36.925Z,15.67
2022-11-07T19:14:37.527Z,15.51
2022-11-07T19:18:44.117Z,15.54
2022-11-07T19:22:46.911Z,15.38
2022-11-07T19:26:47.086Z,15.34
2022-11-07T19:30:47.671Z,14.87
2022-11-07T19:34:50.416Z,15.06
2022-11-07T19:38:51.461Z,14.94
2022-11-07T19:42:51.773Z,15.05
2022-11-07T19:46:51.843Z,14.99
2022-11-07T19:50:54.621Z,14.92
2022-11-07T19:54:54.844Z,14.88
2022-11-07T19:58:56.155Z,14.86
2022-11-07T20:02:56.521Z,14.96
2022-11-07T20:07:00.592Z,15.03
2022-11-07T20:11:00.766Z,15.06
2022-11-07T20:15:00.895Z,15.17
2022-11-07T20:19:01.057Z,15.19
2022-11-07T20:23:03.846Z,15.43
2022-11-07T20:27:03.946Z,15.42
2022-11-07T20:31:09.482Z,15.44
2022-11-07T20:35:11.380Z,15.45
2022-11-07T20:39:15.857Z,15.62
2022-11-07T20:43:16.519Z,15.64
2022-11-07T20:47:16.957Z,15.62
2022-11-07T20:51:20.884Z,15.87
2022-11-07T20:55:23.962Z,15.72
2022-11-07T20:59:24.976Z,15.67
2022-11-07T21:03:25.228Z,15.87
2022-11-07T21:07:25.491Z,15.87
2022-11-07T21:11:28.787Z,15.79
2022-11-07T21:15:29.035Z,15.66
2022-11-07T21:19:29.342Z,15.85
2022-11-07T21:23:29.474Z,15.80
2022-11-07T21:27:39.563Z,15.30
2022-11-07T21:31:43.233Z,15.70
2022-11-07T21:35:44.439Z,15.71
2022-11-07T21:39:44.576Z,15.69
2022-11-07T21:43:47.398Z,15.56
2022-11-07T21:47:47.505Z,15.48
2022-11-07T21:51:47.707Z,15.19
2022-11-07T21:55:47.812Z,15.24
2022-11-07T21:59:50.645Z,15.20
2022-11-07T22:04:09.731Z,15.02
2022-11-07T22:08:10.877Z,14.98
2022-11-07T22:12:11.152Z,14.83
2022-11-07T22:16:16.763Z,14.55
2022-11-07T22:20:16.982Z,14.49
2022-11-07T22:24:17.222Z,14.52
2022-11-07T22:28:17.325Z,14.44
2022-11-07T22:32:19.976Z,14.01
2022-11-07T22:36:20.608Z,14.07
2022-11-07T22:40:21.064Z,14.29
2022-11-07T22:44:21.115Z,14.39
2022-11-07T22:48:23.752Z,14.49
2022-11-07T22:52:24.009Z,14.49
2022-11-07T22:56:24.078Z,14.48
2022-11-07T23:00:24.492Z,14.05
2022-11-07T23:04:32.507Z,14.15
2022-11-07T23:08:33.165Z,14.14
2022-11-07T23:12:33.264Z,14.13
2022-11-07T23:16:35.995Z,14.04
2022-11-07T23:20:51.459Z,13.84
2022-11-07T23:24:52.146Z,13.82
2022-11-07T23:28:53.243Z,13.80
2022-11-07T23:32:53.341Z,13.59
2022-11-07T23:36:56.568Z,13.68
2022-11-07T23:40:57.248Z,13.47
2022-11-07T23:45:09.794Z,13.41
2022-11-07T23:49:24.017Z,13.46
2022-11-07T23:53:39.223Z,13.45
2022-11-07T23:58:00.791Z,13.40
